Map

Track Data

SID SEASON NUMBER BASIN SUBBASIN NAME ISO_TIME NATURE LAT LON WMO_WIND WMO_PRES WMO_AGENCY TRACK_TYPE DIST2LAND LANDFALL IFLAG USA_AGENCY USA_ATCF_ID USA_LAT USA_LON USA_RECORD USA_STATUS USA_WIND USA_PRES USA_SSHS USA_R34_NE USA_R34_SE USA_R34_SW USA_R34_NW USA_R50_NE USA_R50_SE USA_R50_SW USA_R50_NW USA_R64_NE USA_R64_SE USA_R64_SW USA_R64_NW USA_POCI USA_ROCI USA_RMW USA_EYE TOKYO_LAT TOKYO_LON TOKYO_GRADE TOKYO_WIND TOKYO_PRES TOKYO_R50_DIR TOKYO_R50_LONG TOKYO_R50_SHORT TOKYO_R30_DIR TOKYO_R30_LONG TOKYO_R30_SHORT TOKYO_LAND CMA_LAT CMA_LON CMA_CAT CMA_WIND CMA_PRES HKO_LAT HKO_LON HKO_CAT HKO_WIND HKO_PRES NEWDELHI_LAT NEWDELHI_LON NEWDELHI_GRADE NEWDELHI_WIND NEWDELHI_PRES NEWDELHI_CI NEWDELHI_DP NEWDELHI_POCI REUNION_LAT REUNION_LON REUNION_TYPE REUNION_WIND REUNION_PRES REUNION_TNUM REUNION_CI REUNION_RMW REUNION_R34_NE REUNION_R34_SE REUNION_R34_SW REUNION_R34_NW REUNION_R50_NE REUNION_R50_SE REUNION_R50_SW REUNION_R50_NW REUNION_R64_NE REUNION_R64_SE REUNION_R64_SW REUNION_R64_NW BOM_LAT BOM_LON BOM_TYPE BOM_WIND BOM_PRES BOM_TNUM BOM_CI BOM_RMW BOM_R34_NE BOM_R34_SE BOM_R34_SW BOM_R34_NW BOM_R50_NE BOM_R50_SE BOM_R50_SW BOM_R50_NW BOM_R64_NE BOM_R64_SE BOM_R64_SW BOM_R64_NW BOM_ROCI BOM_POCI BOM_EYE BOM_POS_METHOD BOM_PRES_METHOD NADI_LAT NADI_LON NADI_CAT NADI_WIND NADI_PRES WELLINGTON_LAT WELLINGTON_LON WELLINGTON_WIND WELLINGTON_PRES DS824_LAT DS824_LON DS824_STAGE DS824_WIND DS824_PRES TD9636_LAT TD9636_LON TD9636_STAGE TD9636_WIND TD9636_PRES TD9635_LAT TD9635_LON TD9635_WIND TD9635_PRES TD9635_ROCI NEUMANN_LAT NEUMANN_LON NEUMANN_CLASS NEUMANN_WIND NEUMANN_PRES MLC_LAT MLC_LON MLC_CLASS MLC_WIND MLC_PRES USA_GUST BOM_GUST BOM_GUST_PER REUNION_GUST REUNION_GUST_PER USA_SEAHGT USA_SEARAD_NE USA_SEARAD_SE USA_SEARAD_SW USA_SEARAD_NW STORM_SPEED STORM_DIR
1993348S13120 1994 96 SI WA NAOMI 1993-12-14 06:00:00 TS -13.3000 119.500 main 353 344 O___________O_ jtwc_sh SH041994 -13.3000 119.500 15 -1 -13.3000 119.500 TC 15 7 99
1993348S13120 1994 96 SI WA NAOMI 1993-12-14 09:00:00 TS -13.3551 119.850 main 355 348 P___________P_ SH041994 -13.3551 119.850 15 -1 -13.3551 119.850 TC 15 7 98
1993348S13120 1994 96 SI WA NAOMI 1993-12-14 12:00:00 TS -13.4000 120.200 main 348 347 O___________O_ jtwc_sh SH041994 -13.4000 120.200 15 -1 -13.4000 120.200 TC 15 7 97
1993348S13120 1994 96 SI WA NAOMI 1993-12-14 15:00:00 TS -13.4350 120.550 main 347 347 P___________P_ SH041994 -13.4350 120.550 15 -1 -13.4350 120.550 TC 15 7 98
1993348S13120 1994 96 SI WA NAOMI 1993-12-14 18:00:00 TS -13.5000 120.900 main 360 360 O___________O_ jtwc_sh SH041994 -13.5000 120.900 15 -1 -13.5000 120.900 TC 15 7 106
1993348S13120 1994 96 SI WA NAOMI 1993-12-14 21:00:00 TS -13.6350 121.265 main 367 357 P___________P_ SH041994 -13.6350 121.265 17 -1 -13.6350 121.265 TC 17 6 101
1993348S13120 1994 96 SI WA NAOMI 1993-12-15 00:00:00 TS -13.6111 121.500 20 1005 bom main 357 349 O_____O_____O_ jtwc_sh SH041994 -13.8000 121.600 20 -1 -12.1000 120.700 20 20 1005 1.00000 269 3 5 -13.8000 121.600 TC 20 4 88
1993348S13120 1994 96 SI WA NAOMI 1993-12-15 03:00:00 TS -13.6200 121.690 20 1004 bom main 349 334 P_____O_____P_ SH041994 -13.9500 121.888 20 -1 -12.3000 120.900 20 20 1004 1.00000 269 3 5 -13.9500 121.888 TC 20 3 99
1993348S13120 1994 96 SI WA NAOMI 1993-12-15 06:00:00 TS -13.6636 121.855 25 1002 bom main 331 327 O_____O_____O_ jtwc_sh SH041994 -14.1000 122.100 20 -1 -12.5000 121.200 20 25 1002 1.50000 269 3 5 -14.1000 122.100 TC 20 3 110
1993348S13120 1994 96 SI WA NAOMI 1993-12-15 09:00:00 TS -13.7283 121.997 25 1002 bom main 327 292 P_____O_____P_ SH041994 -14.2425 122.245 22 -1 -12.7000 121.500 20 25 1002 1.50000 269 3 5 -14.2425 122.245 TC 22 4 145
1993348S13120 1994 96 SI WA NAOMI 1993-12-15 12:00:00 TS -14.0000 122.100 25 1000 bom main 292 260 O_____O_____O_ jtwc_sh SH041994 -14.4000 122.300 25 -1 -13.2000 121.700 20 25 1000 2.00000 269 3 5 -14.4000 122.300 TC 25 6 168
1993348S13120 1994 96 SI WA NAOMI 1993-12-15 15:00:00 TS -14.2900 122.120 30 998 bom main 260 229 P_____O_____P_ SH041994 -14.5850 122.280 25 -1 -13.7000 121.800 20 30 998 2.50000 269 3 5 -14.5850 122.280 TC 25 6 177
1993348S13120 1994 96 SI WA NAOMI 1993-12-15 18:00:00 TS -14.6333 122.133 30 998 bom main 229 188 O_____O_____O_ jtwc_sh SH041994 -14.8000 122.200 25 -1 -14.3000 122.000 20 30 998 2.50000 269 3 5 -14.8000 122.200 TC 25 7 183
1993348S13120 1994 96 SI WA NAOMI 1993-12-15 21:00:00 TS -14.9900 122.072 30 998 bom main 188 165 P_____O_____P_ SH041994 -15.0350 122.107 27 -1 -14.9000 122.000 20 30 998 2.50000 269 3 5 -15.0350 122.107 TC 27 7 193
1993348S13120 1994 96 SI WA NAOMI 1993-12-16 00:00:00 TS -15.3333 121.967 35 995 bom main 165 139 O_____O_____O_ jtwc_sh SH041994 -15.3000 122.000 30 -1 -15.4000 121.900 30 35 995 3.00000 269 6 5 -15.3000 122.000 TC 30 7 195
1993348S13120 1994 96 SI WA NAOMI 1993-12-16 03:00:00 TS -15.6900 121.872 35 995 bom main 139 131 P_____O_____P_ SH041994 -15.5850 121.907 32 -1 -15.9000 121.800 30 35 995 3.00000 269 6 5 -15.5850 121.907 TC 32 8 200
1993348S13120 1994 96 SI WA NAOMI 1993-12-16 06:00:00 TS -16.0333 121.700 40 990 bom main 132 108 O_____O_____O_ jtwc_sh SH041994 -15.9000 121.800 35 0 -16.3000 121.500 30 40 990 3.00000 269 6 5 -15.9000 121.800 TC 35 8 203
1993348S13120 1994 96 SI WA NAOMI 1993-12-16 09:00:00 TS -16.3800 121.567 50 985 bom main 108 96 P_____O_____P_ SH041994 -16.2200 121.650 37 0 -16.7000 121.400 30 50 985 3.50000 269 6 5 -16.2200 121.650 TC 37 8 200
1993348S13120 1994 96 SI WA NAOMI 1993-12-16 12:00:00 TS -16.7333 121.433 55 980 bom main 105 91 O_____O_____O_ jtwc_sh SH041994 -16.6000 121.500 40 0 -17.0000 121.300 30 55 980 4.00000 269 6 5 -16.6000 121.500 TC 40 9 197
1993348S13120 1994 96 SI WA NAOMI 1993-12-16 15:00:00 TS -17.1900 121.313 60 975 bom main 95 84 P_____O_____P_ SH041994 -17.0850 121.370 45 0 -17.4000 121.200 30 60 975 4.00000 269 6 5 -17.0850 121.370 TC 45 9 190
1993348S13120 1994 96 SI WA NAOMI 1993-12-16 18:00:00 TS -17.6333 121.267 65 970 bom main 84 76 O_____O_____O_ jtwc_sh SH041994 -17.6000 121.300 50 0 -17.7000 121.200 40 65 970 4.50000 269 6 5 -17.6000 121.300 TC 50 8 0
1993348S13120 1994 96 SI WA NAOMI 1993-12-16 21:00:00 TS -18.0050 121.313 70 965 bom main 76 38 P_____O_____P_ SH041994 -18.0575 121.320 52 0 -17.9000 121.300 40 70 965 4.50000 269 6 5 -18.0575 121.320 TC 52 9 169
1993348S13120 1994 96 SI WA NAOMI 1993-12-17 00:00:00 TS -18.4667 121.433 80 960 bom main 33 15 O_____O_____O_ jtwc_sh SH041994 -18.5000 121.400 55 0 -18.4000 121.500 40 80 960 5.00000 269 6 5 -18.5000 121.400 TC 55 10 167
1993348S13120 1994 96 SI WA NAOMI 1993-12-17 03:00:00 TS -18.9283 121.528 80 960 bom main 15 0 P_____O_____P_ SH041994 -18.9425 121.493 55 0 -18.9000 121.600 40 80 960 5.00000 269 3 6 5 -18.9425 121.493 TC 50 10 171
1993348S13120 1994 96 SI WA NAOMI 1993-12-17 06:00:00 TS -19.4333 121.600 70 965 bom main 0 0 O_____O_____O_ jtwc_sh SH041994 -19.4000 121.600 55 0 -19.5000 121.600 40 70 965 269 4 5 -19.4000 121.600 TC 45 10 172
1993348S13120 1994 96 SI WA NAOMI 1993-12-17 09:00:00 TS -19.8900 121.667 60 975 bom main 0 0 P_____O_____P_ SH041994 -19.8850 121.700 45 0 -19.9000 121.600 30 60 975 269 3 5 -19.8850 121.700 TC 40 10 169
1993348S13120 1994 96 SI WA NAOMI 1993-12-17 12:00:00 TS -20.4000 121.800 55 980 bom main 0 0 O_____O_____O_ jtwc_sh SH041994 -20.4000 121.800 35 0 -20.4000 121.800 30 55 980 269 3 5 -20.4000 121.800 TC 35 10 167
1993348S13120 1994 96 SI WA NAOMI 1993-12-17 15:00:00 TS -20.8999 121.909 55 980 bom main 0 0 P_____O_____P_ SH041994 -20.9499 121.863 32 -1 -20.8000 122.000 30 55 980 269 3 5 -20.9499 121.863 TC 32 11 166
1993348S13120 1994 96 SI WA NAOMI 1993-12-17 18:00:00 TS -21.4333 122.067 50 985 bom main 0 0 O_____O_____O_ jtwc_sh SH041994 -21.5000 122.000 30 -1 -21.3000 122.200 30 50 985 269 3 5 -21.5000 122.000 TC 30 11 161
1993348S13120 1994 96 SI WA NAOMI 1993-12-17 21:00:00 TS -21.9000 122.270 50 985 bom main 0 0 P_____O_____P_ SH041994 -22.0000 122.305 27 -1 -21.7000 122.200 30 50 985 269 3 5 -22.0000 122.305 TC 27 11 158
1993348S13120 1994 96 SI WA NAOMI 1993-12-18 00:00:00 TS -22.4200 122.500 40 990 bom main 0 0 O_____O_____O_ jtwc_sh SH041994 -22.5000 122.700 25 -1 -22.3000 122.200 30 40 990 269 3 5 -22.5000 122.700 TC 25 12 159
1993348S13120 1994 96 SI WA NAOMI 1993-12-18 03:00:00 TS -22.9786 122.715 35 995 bom main 0 0 P_____O_____P_ SH041994 -23.0376 123.102 22 -1 -22.9000 122.200 30 35 995 269 3 5 -23.0376 123.102 TC 22 12 164
1993348S13120 1994 96 SI WA NAOMI 1993-12-18 06:00:00 TS -23.5500 122.850 35 995 bom main 0 0 O_____O_____O_ jtwc_sh SH041994 -23.6000 123.500 20 -1 -23.5000 122.200 30 35 995 269 3 5 -23.6000 123.500 TC 20 12 203
1993348S13120 1994 96 SI WA NAOMI 1993-12-18 09:00:00 NR -24.1000 122.200 30 1000 bom main 0 ______O_______ SH041994 -1 -24.1000 122.200 20 30 1000 269 3 5 TC 16 227

About IBTrACS Database

This database is a web-friendly format of International Best Track Archive for Climate Stewardship (IBTrACS), a global best track data archive curated by NOAA dating back to 1842.

Updated: 2021-10-21